createdAt,value
2022-12-24T00:01:54.012Z,5.18
2022-12-24T00:22:25.583Z,5.43
2022-12-24T00:43:03.223Z,6.65
2022-12-24T00:53:07.171Z,6.10
2022-12-24T01:03:12.140Z,6.43
2022-12-24T01:13:29.103Z,9.70
2022-12-24T01:23:34.409Z,7.10
2022-12-24T01:33:38.052Z,7.70
2022-12-24T01:43:47.635Z,7.82
2022-12-24T01:54:09.039Z,6.70
2022-12-24T02:04:25.295Z,6.75
2022-12-24T02:14:32.608Z,9.50
2022-12-24T02:25:10.538Z,8.27
2022-12-24T02:35:19.602Z,9.27
2022-12-24T02:45:30.479Z,7.50
2022-12-24T03:06:29.236Z,7.50
2022-12-24T03:16:38.853Z,8.48
2022-12-24T03:26:47.871Z,6.78
2022-12-24T03:36:54.312Z,8.00
2022-12-24T03:46:57.995Z,7.60
2022-12-24T03:57:03.697Z,7.00
2022-12-24T04:07:08.615Z,8.68
2022-12-24T04:17:42.093Z,7.30
2022-12-24T04:27:49.409Z,8.10
2022-12-24T04:37:55.623Z,7.43
2022-12-24T04:47:58.684Z,9.35
2022-12-24T04:58:04.290Z,8.10
2022-12-24T05:08:07.517Z,9.05
2022-12-24T05:18:11.911Z,10.15
2022-12-24T05:28:16.700Z,9.07
2022-12-24T05:38:22.123Z,8.85
2022-12-24T05:48:26.416Z,7.50
2022-12-24T05:58:31.597Z,10.43
2022-12-24T06:08:36.776Z,9.65
2022-12-24T06:18:41.927Z,9.02
2022-12-24T06:28:46.730Z,8.73
2022-12-24T06:38:53.012Z,8.35
2022-12-24T06:48:56.720Z,8.23
2022-12-24T06:59:05.266Z,9.27
2022-12-24T07:09:11.260Z,11.35
2022-12-24T07:19:15.994Z,9.52
2022-12-24T07:29:20.407Z,13.73
2022-12-24T07:39:28.939Z,11.95
2022-12-24T07:49:33.548Z,11.43
2022-12-24T07:59:39.546Z,11.25
2022-12-24T08:09:45.038Z,11.00
2022-12-24T08:19:50.656Z,14.25
2022-12-24T08:29:54.461Z,11.65
2022-12-24T08:39:59.582Z,15.18
2022-12-24T08:50:04.501Z,12.75
2022-12-24T09:00:13.209Z,14.45
2022-12-24T09:10:17.948Z,13.57
2022-12-24T09:20:22.778Z,13.48
2022-12-24T09:30:25.891Z,13.32
2022-12-24T09:40:39.249Z,12.70
2022-12-24T09:50:50.426Z,14.60
2022-12-24T10:00:56.542Z,14.18
2022-12-24T10:11:07.532Z,13.98
2022-12-24T10:21:16.584Z,12.35
2022-12-24T10:31:26.276Z,13.25
2022-12-24T10:41:32.803Z,12.15
2022-12-24T10:51:43.889Z,14.07
2022-12-24T11:01:51.763Z,12.73
2022-12-24T11:11:56.912Z,14.35
2022-12-24T11:22:04.925Z,14.02
2022-12-24T11:32:18.462Z,11.15
2022-12-24T11:42:33.116Z,12.43
2022-12-24T11:52:37.090Z,10.20
2022-12-24T12:02:46.995Z,11.55
2022-12-24T12:13:01.017Z,12.07
2022-12-24T12:23:15.982Z,10.43
2022-12-24T12:33:26.475Z,10.93
2022-12-24T12:43:56.167Z,10.32
2022-12-24T12:54:21.470Z,10.38
2022-12-24T13:04:53.799Z,11.43
2022-12-24T13:15:34.595Z,11.47
2022-12-24T13:25:41.896Z,12.20
2022-12-24T13:36:10.361Z,9.48
2022-12-24T13:46:51.460Z,11.07
2022-12-24T13:57:25.146Z,9.90
2022-12-24T14:08:02.255Z,10.38
2022-12-24T14:29:34.561Z,9.52
2022-12-24T15:58:08.375Z,4.22
2022-12-24T16:31:31.654Z,5.03
2022-12-24T16:43:08.826Z,4.38
2022-12-24T17:15:46.989Z,3.65
2022-12-24T17:25:51.260Z,2.92
2022-12-24T17:35:56.322Z,3.72
2022-12-24T17:46:00.569Z,3.40
2022-12-24T17:56:07.532Z,4.70
2022-12-24T18:06:13.840Z,2.83
2022-12-24T18:16:22.777Z,3.10
2022-12-24T18:26:32.154Z,3.25
2022-12-24T18:36:42.189Z,2.72
2022-12-24T18:46:46.410Z,3.40
2022-12-24T18:56:54.025Z,3.92
2022-12-24T19:07:07.182Z,3.88
2022-12-24T19:17:13.408Z,2.30
2022-12-24T19:27:17.515Z,2.47
2022-12-24T19:37:23.258Z,2.50
2022-12-24T19:47:26.319Z,3.35
2022-12-24T19:57:31.734Z,2.20
2022-12-24T20:07:34.852Z,2.72
2022-12-24T20:17:39.479Z,2.60
2022-12-24T20:27:42.525Z,2.63
2022-12-24T20:37:46.947Z,1.77
2022-12-24T20:47:50.183Z,2.42
2022-12-24T20:57:54.978Z,2.10
2022-12-24T21:07:57.929Z,1.80
2022-12-24T21:18:05.179Z,3.00
2022-12-24T21:28:09.869Z,2.58
2022-12-24T21:38:14.611Z,2.70
2022-12-24T21:48:36.451Z,2.95
2022-12-24T21:58:40.982Z,2.97
2022-12-24T22:09:02.544Z,3.83
2022-12-24T22:19:06.908Z,4.00
2022-12-24T22:29:09.849Z,3.88
2022-12-24T22:39:14.481Z,3.45
2022-12-24T22:49:17.579Z,4.10
2022-12-24T22:59:22.024Z,3.47
2022-12-24T23:09:25.940Z,4.18
2022-12-24T23:19:33.725Z,4.47
2022-12-24T23:29:37.889Z,4.05
2022-12-24T23:39:42.390Z,5.70
2022-12-24T23:49:45.229Z,4.15
2022-12-24T23:59:50.176Z,4.22
